»·PEaware :: FDX1187 KOAK-KSAN

FDX1187 :: KOAK-KSAN

FLIGHT INFORMATION

Flight Status: Arrived
Operator:
Federal Express
More flights by this operator :: More flights under this callsign
Pilot: Anonymous 12254 (12254)
Aircraft: BOEING 767-300
(B763)
More flights by this aircraft type
Origin: KOAK Metro Oakland Intl
United States
Destination: KSAN San Diego Intl-Lindbergh
United States
More flights between these airports :: More routes between these airports
Route: +COAST9 SXC HUBRD1
File this flight plan on PilotEdge
Remarks:
Altitude:
(Current/Filed)
29,000ft
Speed:
(Current/Filed)
340kts
Departed: 28-Apr-19 12:07 PM
Arrived: 28-Apr-19 01:30 PM
Distance/Time
Traveled:
388nm/1:23
Distance/Time
To Go:
Arrived

Flight Plot

Page will automatically refresh every two minutes.

Flight plan parsing failed; only flown route is shown


Map Options




Map Legend


Flown Route
Filed Route
Departure Airport
Arrival Airport
Navaid (VOR, NDB)
Fix

Horizontal Profiles

Position Reports

Time Latitude Longitude Heading Altitude Ground
Speed
28-Apr-19 10:57 37.717056 -122.220136 310 15ft 0kts
28-Apr-19 10:58 37.717056 -122.220136 310 15ft 0kts
28-Apr-19 10:59 37.717056 -122.220136 310 15ft 0kts
28-Apr-19 11:00 37.717056 -122.220136 310 15ft 0kts
28-Apr-19 11:01 37.717056 -122.220136 310 15ft 0kts
28-Apr-19 11:02 37.717056 -122.220136 310 15ft 0kts
28-Apr-19 11:03 37.717056 -122.220136 310 15ft 0kts
28-Apr-19 11:04 37.717056 -122.220136 310 15ft 0kts
28-Apr-19 11:05 37.717056 -122.220136 310 15ft 0kts
28-Apr-19 11:06 37.717056 -122.220136 310 15ft 0kts
28-Apr-19 11:07 37.717056 -122.220136 310 15ft 0kts
28-Apr-19 11:08 37.717056 -122.220136 310 15ft 0kts
28-Apr-19 11:09 37.717056 -122.220136 310 15ft 0kts
28-Apr-19 11:10 37.717056 -122.220136 310 15ft 0kts
28-Apr-19 11:11 37.717056 -122.220136 310 15ft 0kts
28-Apr-19 11:12 37.717056 -122.220136 310 15ft 0kts
28-Apr-19 11:13 37.717056 -122.220136 310 15ft 0kts
28-Apr-19 11:14 37.717056 -122.220136 310 15ft 0kts
28-Apr-19 11:16 37.717056 -122.220136 310 15ft 0kts
28-Apr-19 11:17 37.717056 -122.220136 310 15ft 0kts
28-Apr-19 11:18 37.717056 -122.220136 310 15ft 0kts
28-Apr-19 11:19 37.717056 -122.220136 310 15ft 0kts
28-Apr-19 11:20 37.717056 -122.220136 310 15ft 0kts
28-Apr-19 11:21 37.717056 -122.220136 310 15ft 0kts
28-Apr-19 11:22 37.717056 -122.220136 310 15ft 0kts
28-Apr-19 11:23 37.717056 -122.220136 310 15ft 0kts
28-Apr-19 11:24 37.717056 -122.220136 310 15ft 0kts
28-Apr-19 11:25 37.717056 -122.220136 310 15ft 0kts
28-Apr-19 11:26 37.717056 -122.220136 310 15ft 0kts
28-Apr-19 11:27 37.717056 -122.220136 310 15ft 0kts
28-Apr-19 11:28 37.717056 -122.220136 310 15ft 0kts
28-Apr-19 11:29 37.717056 -122.220136 310 15ft 0kts
28-Apr-19 11:30 37.717056 -122.220136 310 15ft 0kts
28-Apr-19 11:31 37.717056 -122.220136 310 15ft 0kts
28-Apr-19 11:32 37.717056 -122.220136 310 15ft 0kts
28-Apr-19 11:33 37.717056 -122.220136 310 15ft 0kts
28-Apr-19 11:34 37.717056 -122.220136 310 15ft 0kts
28-Apr-19 11:35 37.717056 -122.220136 310 15ft 0kts
28-Apr-19 11:35 37.717056 -122.220136 310 15ft 0kts
28-Apr-19 11:37 37.717056 -122.220136 310 15ft 0kts
28-Apr-19 11:38 37.717056 -122.220136 310 15ft 0kts
28-Apr-19 11:38 37.717056 -122.220136 310 15ft 0kts
28-Apr-19 11:39 37.717056 -122.220136 310 15ft 0kts
28-Apr-19 11:41 37.717056 -122.220136 310 15ft 0kts
28-Apr-19 11:41 37.717058 -122.220138 310 15ft 0kts
28-Apr-19 11:42 37.717070 -122.220156 310 15ft 0kts
28-Apr-19 11:43 37.717213 -122.220373 310 15ft 0kts
28-Apr-19 11:44 37.717192 -122.220334 274 15ft 0kts
28-Apr-19 11:45 37.717151 -122.220249 225 15ft 0kts
28-Apr-19 11:46 37.717056 -122.220367 223 15ft 2kts
28-Apr-19 11:47 37.716001 -122.220914 162 15ft 4kts
28-Apr-19 11:48 37.715733 -122.220616 131 15ft 0kts
28-Apr-19 11:49 37.715733 -122.220616 131 15ft 0kts
28-Apr-19 11:50 37.715733 -122.220616 131 15ft 0kts
28-Apr-19 11:51 37.715733 -122.220616 131 15ft 0kts
28-Apr-19 11:52 37.715733 -122.220616 131 15ft 0kts
28-Apr-19 11:53 37.715733 -122.220616 131 15ft 0kts
28-Apr-19 11:54 37.715733 -122.220616 131 15ft 0kts
28-Apr-19 11:55 37.715733 -122.220616 131 15ft 0kts
28-Apr-19 11:56 37.715733 -122.220616 131 15ft 0kts
28-Apr-19 11:57 37.715733 -122.220616 131 15ft 0kts
28-Apr-19 11:58 37.715531 -122.220328 131 15ft 3kts
28-Apr-19 11:59 37.714494 -122.220076 222 15ft 4kts
28-Apr-19 12:00 37.713378 -122.221530 226 15ft 8kts
28-Apr-19 12:01 37.710792 -122.224184 173 15ft 13kts
28-Apr-19 12:02 37.708539 -122.221094 130 15ft 14kts
28-Apr-19 12:03 37.705089 -122.215889 129 15ft 20kts
28-Apr-19 12:04 37.702792 -122.213550 167 15ft 0kts
28-Apr-19 12:05 37.701839 -122.214586 295 15ft 25kts
28-Apr-19 12:06 37.733123 -122.261324 310 1264ft 217kts
28-Apr-19 12:07 37.772963 -122.321131 310 1986ft 241kts
28-Apr-19 12:08 37.816220 -122.386517 310 4241ft 247kts
28-Apr-19 12:09 37.858819 -122.456756 285 6755ft 258kts
28-Apr-19 12:10 37.829677 -122.542772 232 9439ft 279kts
28-Apr-19 12:11 37.777898 -122.624185 231 12065ft 312kts
28-Apr-19 12:12 37.718695 -122.711361 229 14635ft 329kts
28-Apr-19 12:13 37.632059 -122.735077 161 17330ft 359kts
28-Apr-19 12:14 37.532206 -122.702064 170 19883ft 372kts
28-Apr-19 12:15 37.425527 -122.680811 171 22459ft 387kts
28-Apr-19 12:16 37.315468 -122.659135 172 25055ft 400kts
28-Apr-19 12:17 37.200226 -122.644749 163 27512ft 415kts
28-Apr-19 12:18 37.084052 -122.607298 166 29003ft 432kts
28-Apr-19 12:19 36.962330 -122.571885 169 29018ft 448kts
28-Apr-19 12:20 36.833059 -122.538279 170 29007ft 465kts
28-Apr-19 12:21 36.703371 -122.504669 170 28997ft 465kts
28-Apr-19 12:22 36.575184 -122.471530 170 28990ft 465kts
28-Apr-19 12:23 36.446905 -122.431320 156 28989ft 470kts
28-Apr-19 12:24 36.347259 -122.321699 134 28988ft 479kts
28-Apr-19 12:25 36.257509 -122.191414 133 28981ft 483kts
28-Apr-19 12:26 36.169444 -122.063604 133 28988ft 480kts
28-Apr-19 12:27 36.080114 -121.934387 133 28988ft 480kts
28-Apr-19 12:28 35.990701 -121.805533 133 28988ft 480kts
28-Apr-19 12:29 35.901032 -121.676796 133 28988ft 479kts
28-Apr-19 12:30 35.812198 -121.549740 133 28981ft 480kts
28-Apr-19 12:31 35.722538 -121.421993 133 28968ft 481kts
28-Apr-19 12:32 35.634665 -121.297238 134 28961ft 480kts
28-Apr-19 12:33 35.545310 -121.170834 134 28965ft 480kts
28-Apr-19 12:34 35.447256 -121.056120 150 28976ft 473kts
28-Apr-19 12:35 35.335329 -120.966517 152 28990ft 472kts
28-Apr-19 12:36 35.224231 -120.878906 152 28989ft 472kts
28-Apr-19 12:37 35.114289 -120.792615 152 28988ft 472kts
28-Apr-19 12:38 35.002489 -120.705159 152 28989ft 467kts
28-Apr-19 12:39 34.894409 -120.620831 152 28980ft 429kts
28-Apr-19 12:40 34.789583 -120.539471 151 29003ft 448kts
28-Apr-19 12:41 34.682796 -120.456718 151 29003ft 449kts
28-Apr-19 12:42 34.576092 -120.374300 151 28995ft 449kts
28-Apr-19 12:43 34.469628 -120.292323 152 28984ft 448kts
28-Apr-19 12:44 34.362107 -120.209786 152 28981ft 449kts
28-Apr-19 12:45 34.258383 -120.120350 138 28938ft 459kts
28-Apr-19 12:46 34.186944 -119.987730 127 27243ft 454kts
28-Apr-19 12:47 34.120599 -119.857019 126 25166ft 441kts
28-Apr-19 12:48 34.056349 -119.730893 126 23089ft 427kts
28-Apr-19 12:49 33.993828 -119.608585 125 21012ft 414kts
28-Apr-19 12:50 33.934106 -119.492104 125 18910ft 386kts
28-Apr-19 12:51 33.877561 -119.382230 124 16826ft 366kts
28-Apr-19 12:52 33.823825 -119.278097 124 14802ft 356kts
28-Apr-19 12:53 33.771093 -119.176195 124 12749ft 342kts
28-Apr-19 12:54 33.724723 -119.086774 124 10633ft 285kts
28-Apr-19 12:55 33.681584 -119.003864 124 8576ft 281kts
28-Apr-19 12:56 33.639715 -118.923561 124 6549ft 278kts
28-Apr-19 12:57 33.599798 -118.847131 123 4933ft 259kts
28-Apr-19 12:58 33.561541 -118.773996 123 4043ft 258kts
28-Apr-19 12:59 33.523260 -118.700802 123 4037ft 257kts
28-Apr-19 13:00 33.485025 -118.627758 124 7036ft 267kts
28-Apr-19 13:01 33.444238 -118.549854 125 11161ft 276kts
28-Apr-19 13:02 33.401677 -118.468702 126 15011ft 300kts
28-Apr-19 13:03 33.355985 -118.381618 126 14997ft 303kts
28-Apr-19 13:04 33.310287 -118.297899 121 14997ft 305kts
28-Apr-19 13:05 33.310608 -118.191406 94 14999ft 318kts
28-Apr-19 13:06 33.304669 -118.083972 100 14997ft 316kts
28-Apr-19 13:07 33.295605 -117.977185 100 14994ft 316kts
28-Apr-19 13:08 33.286174 -117.869514 100 14991ft 317kts
28-Apr-19 13:09 33.276659 -117.762079 100 14987ft 317kts
28-Apr-19 13:10 33.267072 -117.654909 100 14983ft 317kts
28-Apr-19 13:11 33.242291 -117.556200 136 14995ft 301kts
28-Apr-19 13:12 33.183678 -117.481007 137 14990ft 300kts
28-Apr-19 13:13 33.121057 -117.413793 157 15009ft 292kts
28-Apr-19 13:14 33.045628 -117.371382 158 15002ft 288kts
28-Apr-19 13:15 32.972879 -117.330917 158 13214ft 274kts
28-Apr-19 13:16 32.904736 -117.293142 159 10851ft 258kts
28-Apr-19 13:17 32.840812 -117.257748 159 8283ft 242kts
28-Apr-19 13:18 32.781769 -117.224982 160 6980ft 213kts
28-Apr-19 13:19 32.727582 -117.195003 157 6498ft 215kts
28-Apr-19 13:20 32.715996 -117.127176 81 5201ft 234kts
28-Apr-19 13:21 32.728516 -117.052504 81 4980ft 230kts
28-Apr-19 13:22 32.741137 -116.978027 71 4963ft 230kts
28-Apr-19 13:23 32.771178 -116.917129 118 4495ft 221kts
28-Apr-19 13:24 32.734945 -116.940677 261 3787ft 188kts
28-Apr-19 13:26 32.728289 -117.000439 260 3773ft 179kts
28-Apr-19 13:27 32.725385 -117.054786 274 2845ft 167kts
28-Apr-19 13:28 32.727313 -117.107382 262 1503ft 152kts
28-Apr-19 13:29 32.725898 -117.158567 280 570ft 142kts
28-Apr-19 13:30 32.733797 -117.190418 308 25ft 14kts
28-Apr-19 13:31 32.734709 -117.190420 67 25ft 2kts
28-Apr-19 13:32 32.734382 -117.183987 345 25ft 14kts
28-Apr-19 13:33 32.736705 -117.185555 350 25ft 0kts
28-Apr-19 13:34 32.736705 -117.185555 350 25ft 0kts
28-Apr-19 13:35 32.736705 -117.185555 350 25ft 0kts
28-Apr-19 13:36 32.737375 -117.185627 356 26ft 0kts
28-Apr-19 13:37 32.737375 -117.185627 356 26ft 0kts
28-Apr-19 13:38 32.737375 -117.185627 356 26ft 0kts

Navigation Log

Ident Type
Flight plan parsing failed, navigation log unavailable